weather.gov     
National Weather Service

Terminal Aerodrome Forecast
NWS Homepage
This page is being discontinued on March 12, 2014.
The same data is available at this site. Please update your bookmarks.
Thank you, and we apologize for the inconvenience.
Please send an email to SR-SRH.Webmaster@noaa.gov with any concerns.


Current Version
Previous Version:    01  02  03  04  05  06  07  08  09  10  11  12  13  14  15  16  17  18  19  20  21  22  23  24  25  26  27  28  29  30  
   31  32  33  
[Printable]
538
FTUS45 KBOU 250534
TAFBJC
TAF
KBJC 250534Z 2506/2606 13005KT P6SM FEW120 BKN200
     FM250800 25010KT P6SM FEW120 SCT200
     FM251500 06009KT P6SM FEW100 SCT220
     FM251800 12010KT P6SM FEW080 SCT150
     FM252200 21010KT P6SM SCT080 BKN150 PROB30 2522/2601 VRB20G35KT
      -TSRA BKN080CB
     FM260200 21010KT P6SM FEW080 BKN110=




538
FTUS45 KBOU 250534
TAFBJC
TAF
KBJC 250534Z 2506/2606 13005KT P6SM FEW120 BKN200
     FM250800 25010KT P6SM FEW120 SCT200
     FM251500 06009KT P6SM FEW100 SCT220
     FM251800 12010KT P6SM FEW080 SCT150
     FM252200 21010KT P6SM SCT080 BKN150 PROB30 2522/2601 VRB20G35KT
      -TSRA BKN080CB
     FM260200 21010KT P6SM FEW080 BKN110=


U.S. Dept. of Commerce
NOAA National Weather Service
1325 East West Highway
Silver Spring, MD 20910
E-mail: w-nws.webmaster@noaa.gov
Page last modified: May 16, 2007
NATIONAL WEATHER SERVICE: for Safety, for Work, for Fun - FOR LIFE